Time;durP1;ratioP1;P1;durP2;ratioP2;P2;SDS_P1;SDS_P2;PMS_P1;PMS_P2;Temp;Humidity;BMP_temperature;BMP_pressure;BME280_temperature;BME280_humidity;BME280_pressure;Samples;Min_cycle;Max_cycle;Signal;HPM_P1;HPM_P2
2021/04/15 00:01:21;;;;;;;2.03;1.17;;;4.10;92.30;;;;;;5025938;28;20040;-74
2021/04/15 00:03:47;;;;;;;2.25;1.50;;;4.10;92.60;;;;;;5028146;28;20029;-74
2021/04/15 00:06:15;;;;;;;2.20;1.20;;;4.10;92.30;;;;;;5023898;28;20034;-73
2021/04/15 00:08:42;;;;;;;2.65;1.15;;;4.00;92.30;;;;;;5028028;28;20028;-73
2021/04/15 00:11:08;;;;;;;2.38;1.38;;;4.00;93.00;;;;;;5026742;28;20021;-73
2021/04/15 00:13:37;;;;;;;2.25;1.23;;;4.00;93.00;;;;;;5022750;28;20033;-73
2021/04/15 00:16:04;;;;;;;1.35;1.08;;;4.00;93.40;;;;;;5022013;28;20046;-73
2021/04/15 00:18:30;;;;;;;1.45;1.10;;;3.90;92.80;;;;;;5021289;28;20032;-74
2021/04/15 00:20:56;;;;;;;2.22;1.27;;;3.90;93.40;;;;;;5024028;28;20084;-74
2021/04/15 00:23:22;;;;;;;2.97;1.30;;;3.90;93.60;;;;;;5025520;28;20029;-73
2021/04/15 00:25:47;;;;;;;3.08;1.30;;;3.90;93.00;;;;;;5022712;28;20625;-73
2021/04/15 00:28:14;;;;;;;1.83;1.10;;;3.90;93.00;;;;;;5028396;28;20045;-74
2021/04/15 00:30:40;;;;;;;3.13;1.35;;;3.90;92.90;;;;;;5023063;28;20030;-73
2021/04/15 00:33:07;;;;;;;1.52;1.13;;;3.90;93.00;;;;;;5018047;28;20384;-74
2021/04/15 00:35:34;;;;;;;2.42;1.33;;;3.90;93.00;;;;;;5028047;28;20255;-73
2021/04/15 00:38:02;;;;;;;1.15;0.98;;;3.80;93.40;;;;;;5027339;28;20281;-73
2021/04/15 00:40:28;;;;;;;1.00;0.85;;;3.80;93.40;;;;;;5018352;28;20060;-73
2021/04/15 00:42:54;;;;;;;1.92;1.38;;;3.80;93.60;;;;;;5027337;28;20118;-73
2021/04/15 00:45:25;;;;;;;3.25;1.20;;;3.80;93.40;;;;;;5025264;28;20037;-73
2021/04/15 00:47:56;;;;;;;;;;;3.80;93.10;;;;;;5019080;28;20029;-73
2021/04/15 00:50:27;;;;;;;2.83;1.20;;;3.80;93.30;;;;;;5021742;28;20336;-73
2021/04/15 00:52:57;;;;;;;4.40;1.20;;;3.80;93.50;;;;;;5015349;28;20060;-73
2021/04/15 00:55:25;;;;;;;2.55;1.20;;;3.80;93.50;;;;;;5023311;28;20499;-74
2021/04/15 00:57:52;;;;;;;2.67;1.23;;;3.80;93.50;;;;;;5020819;28;20496;-73
2021/04/15 01:00:23;;;;;;;3.30;1.30;;;3.80;93.50;;;;;;5026438;28;20033;-73
2021/04/15 01:02:49;;;;;;;2.97;1.38;;;3.80;93.70;;;;;;5021828;28;20029;-73
2021/04/15 01:05:19;;;;;;;2.33;1.40;;;3.80;93.20;;;;;;5026580;28;20649;-73
2021/04/15 01:07:44;;;;;;;5.50;1.10;;;3.80;93.20;;;;;;5024565;28;20041;-73
2021/04/15 01:10:11;;;;;;;2.28;1.27;;;3.80;93.80;;;;;;5027509;28;20112;-73
2021/04/15 01:12:58;;;;;;;3.20;1.38;;;3.80;93.70;;;;;;5029680;28;20045;-73
2021/04/15 01:15:46;;;;;;;1.83;1.10;;;3.80;93.50;;;;;;5030452;28;20472;-73
2021/04/15 01:18:24;;;;;;;3.55;1.10;;;3.90;93.10;;;;;;5024261;28;20034;-73
2021/04/15 01:21:18;;;;;;;1.52;1.02;;;3.90;93.20;;;;;;5022341;28;20030;-73
2021/04/15 01:24:10;;;;;;;2.50;1.23;;;3.90;93.40;;;;;;5025249;28;20112;-74
2021/04/15 01:26:59;;;;;;;1.48;1.10;;;3.90;93.30;;;;;;5027372;28;20718;-73
2021/04/15 01:29:34;;;;;;;2.67;1.30;;;3.80;93.10;;;;;;5028679;28;20060;-73
2021/04/15 01:32:18;;;;;;;1.35;1.15;;;3.80;93.10;;;;;;5027956;28;20437;-74
2021/04/15 01:35:01;;;;;;;1.25;1.10;;;3.90;92.70;;;;;;5022138;28;20044;-73
2021/04/15 01:37:33;;;;;;;3.08;1.23;;;3.80;92.50;;;;;;5028554;28;20025;-73
2021/04/15 01:40:14;;;;;;;3.67;1.20;;;3.80;92.30;;;;;;5028395;28;20022;-73
2021/04/15 01:42:49;;;;;;;1.40;1.10;;;3.80;92.80;;;;;;5028286;28;20033;-73
2021/04/15 01:45:15;;;;;;;1.90;1.08;;;3.80;92.90;;;;;;5014055;28;20528;-74
2021/04/15 01:47:48;;;;;;;2.63;1.48;;;3.80;92.90;;;;;;5028698;28;20034;-73
2021/04/15 01:50:25;;;;;;;2.08;1.35;;;3.80;92.80;;;;;;5026665;28;20041;-73
2021/04/15 01:52:53;;;;;;;1.58;0.98;;;3.70;93.10;;;;;;5023776;28;20053;-73
2021/04/15 01:55:28;;;;;;;1.38;1.00;;;3.70;93.00;;;;;;5030705;28;20034;-72
2021/04/15 01:58:10;;;;;;;1.73;1.20;;;3.70;93.00;;;;;;5028264;28;20075;-73
2021/04/15 02:00:37;;;;;;;1.48;1.05;;;3.70;93.30;;;;;;5012161;28;20026;-73
2021/04/15 02:03:15;;;;;;;1.42;1.00;;;3.70;93.20;;;;;;5024041;28;20370;-73
2021/04/15 02:05:43;;;;;;;3.25;1.50;;;3.70;93.40;;;;;;5021996;28;20033;-73
2021/04/15 02:08:17;;;;;;;1.98;1.10;;;3.70;93.70;;;;;;5027576;28;20036;-73
2021/04/15 02:10:49;;;;;;;3.10;1.30;;;3.70;94.00;;;;;;5030193;28;20033;-73
2021/04/15 02:13:16;;;;;;;1.30;1.20;;;3.70;94.00;;;;;;5023558;28;20046;-73
2021/04/15 02:15:48;;;;;;;3.15;1.20;;;3.80;94.00;;;;;;5028535;28;20025;-73
2021/04/15 02:18:36;;;;;;;2.20;1.30;;;3.80;94.60;;;;;;5022049;28;20053;-73
2021/04/15 02:21:35;;;;;;;3.45;1.25;;;3.80;94.90;;;;;;5017966;28;20018;-73
2021/04/15 02:24:07;;;;;;;4.50;1.42;;;3.80;94.30;;;;;;5013461;28;20030;-73
2021/04/15 02:26:38;;;;;;;2.05;1.30;;;3.80;94.50;;;;;;5028531;28;20029;-73
2021/04/15 02:29:17;;;;;;;;;;;3.80;94.40;;;;;;5022906;28;20025;-73
2021/04/15 02:31:59;;;;;;;5.65;1.27;;;3.80;94.60;;;;;;5020231;28;19956;-73
2021/04/15 02:34:40;;;;;;;3.38;1.55;;;3.80;94.80;;;;;;5021740;28;20088;-74
2021/04/15 02:37:12;;;;;;;4.68;1.70;;;3.70;95.00;;;;;;5027853;28;20029;-74
2021/04/15 02:39:42;;;;;;;2.17;1.40;;;3.80;94.90;;;;;;5024386;28;20476;-74
2021/04/15 02:42:11;;;;;;;3.35;1.70;;;3.80;95.10;;;;;;5024275;28;20021;-74
2021/04/15 02:45:01;;;;;;;3.70;1.92;;;3.70;95.70;;;;;;5029217;28;20074;-73
2021/04/15 02:47:37;;;;;;;3.40;2.03;;;3.70;95.90;;;;;;5016825;28;20128;-73
2021/04/15 02:50:08;;;;;;;3.00;1.70;;;3.70;96.60;;;;;;5024872;28;20033;-74
2021/04/15 02:52:38;;;;;;;4.95;1.38;;;3.70;96.20;;;;;;5029841;28;20049;-73
2021/04/15 02:55:18;;;;;;;4.70;1.30;;;3.70;96.70;;;;;;5018002;28;20392;-73
2021/04/15 02:57:59;;;;;;;2.00;1.27;;;3.60;96.30;;;;;;5027563;28;20041;-73
2021/04/15 03:00:28;;;;;;;4.57;2.00;;;3.60;96.60;;;;;;5022591;28;20411;-73
2021/04/15 03:03:03;;;;;;;3.35;1.77;;;3.60;96.80;;;;;;5020738;28;20116;-74
2021/04/15 03:05:32;;;;;;;4.85;1.50;;;3.60;96.80;;;;;;5027403;28;20525;-73
2021/04/15 03:08:00;;;;;;;2.63;1.50;;;3.60;96.70;;;;;;5026901;28;20057;-73
2021/04/15 03:10:37;;;;;;;3.55;1.50;;;3.60;97.10;;;;;;5028310;28;20443;-73
2021/04/15 03:13:16;;;;;;;3.15;1.60;;;3.60;97.30;;;;;;5025608;28;20510;-73
2021/04/15 03:15:47;;;;;;;3.92;1.40;;;3.60;97.30;;;;;;5017370;28;20128;-73
2021/04/15 03:18:17;;;;;;;2.88;1.63;;;3.60;97.60;;;;;;5027371;28;20055;-73
2021/04/15 03:20:50;;;;;;;3.95;1.33;;;3.60;97.60;;;;;;5028488;28;20456;-73
2021/04/15 03:23:25;;;;;;;5.90;1.95;;;3.50;98.20;;;;;;5027840;28;20037;-73
2021/04/15 03:25:53;;;;;;;2.88;1.38;;;3.50;98.10;;;;;;5026647;28;20396;-73
2021/04/15 03:28:36;;;;;;;2.92;1.65;;;3.50;98.20;;;;;;5018706;28;20033;-73
2021/04/15 03:31:20;;;;;;;4.30;1.70;;;3.50;98.60;;;;;;5025379;28;20523;-72
2021/04/15 03:33:52;;;;;;;2.58;1.60;;;3.50;99.10;;;;;;5024740;28;20156;-73
2021/04/15 03:36:34;;;;;;;3.38;1.67;;;3.50;98.60;;;;;;5023618;28;20064;-73
2021/04/15 03:39:06;;;;;;;3.25;1.58;;;3.50;99.00;;;;;;5025656;28;20456;-73
2021/04/15 03:41:39;;;;;;;5.05;1.85;;;3.50;99.10;;;;;;5023635;28;20486;-73
2021/04/15 03:44:26;;;;;;;4.03;1.80;;;3.50;99.10;;;;;;5023849;28;20022;-73
2021/04/15 03:47:30;;;;;;;5.13;1.88;;;3.50;99.50;;;;;;5024333;28;20041;-73
2021/04/15 03:50:08;;;;;;;5.55;1.75;;;3.50;99.80;;;;;;4925473;29;20036;-73
2021/04/15 03:52:50;;;;;;;3.40;2.03;;;3.50;99.90;;;;;;5017804;28;20037;-73
2021/04/15 03:55:40;;;;;;;2.33;1.58;;;3.50;99.90;;;;;;5023782;28;20603;-74
2021/04/15 03:58:15;;;;;;;11.52;2.17;;;3.50;99.90;;;;;;5022949;28;20049;-74
2021/04/15 04:00:47;;;;;;;9.57;2.15;;;3.50;99.90;;;;;;5021400;28;20033;-73
2021/04/15 04:03:19;;;;;;;4.95;1.85;;;3.50;99.90;;;;;;5016969;28;20032;-74
2021/04/15 04:05:49;;;;;;;4.50;1.90;;;3.50;99.90;;;;;;5024365;28;20025;-73
2021/04/15 04:08:18;;;;;;;4.13;1.55;;;3.60;99.90;;;;;;5026628;28;20040;-74
2021/04/15 04:10:47;;;;;;;3.22;1.80;;;3.50;99.90;;;;;;5009380;28;20029;-74
2021/04/15 04:13:34;;;;;;;2.63;1.80;;;3.50;99.90;;;;;;5020878;28;20025;-74
2021/04/15 04:16:14;;;;;;;2.45;1.70;;;3.60;99.90;;;;;;5018172;28;20037;-74
2021/04/15 04:19:00;;;;;;;4.55;1.90;;;3.50;99.90;;;;;;5026259;28;20041;-73
2021/04/15 04:21:34;;;;;;;2.95;1.77;;;3.60;99.90;;;;;;5019453;28;20175;-74
2021/04/15 04:24:14;;;;;;;3.38;2.00;;;3.60;99.90;;;;;;5019220;28;20034;-74
2021/04/15 04:26:47;;;;;;;7.13;2.20;;;3.60;99.90;;;;;;5017570;28;20394;-74
2021/04/15 04:29:27;;;;;;;4.90;2.20;;;3.60;99.90;;;;;;5027717;28;20079;-73
2021/04/15 04:31:56;;;;;;;8.38;1.80;;;3.70;99.90;;;;;;5026981;28;20052;-74
2021/04/15 04:34:23;;;;;;;4.78;1.95;;;3.70;99.90;;;;;;5020595;28;20086;-74
2021/04/15 04:36:56;;;;;;;4.43;2.10;;;3.80;99.90;;;;;;5028613;28;20029;-73
2021/04/15 04:39:26;;;;;;;4.53;2.10;;;3.80;99.90;;;;;;5025619;28;20029;-73
2021/04/15 04:42:19;;;;;;;3.30;2.00;;;3.80;99.90;;;;;;5024634;28;20704;-73
2021/04/15 04:44:50;;;;;;;3.22;2.20;;;3.80;99.90;;;;;;5010209;28;20083;-74
2021/04/15 04:47:19;;;;;;;6.45;1.95;;;3.80;99.90;;;;;;5021934;28;20026;-74
2021/04/15 04:49:53;;;;;;;6.72;2.15;;;3.90;99.90;;;;;;5030861;28;20057;-72
2021/04/15 04:52:25;;;;;;;6.25;2.38;;;3.90;99.90;;;;;;5012028;28;20479;-73
2021/04/15 04:54:50;;;;;;;6.95;2.65;;;4.00;99.90;;;;;;5019293;28;20034;-74
2021/04/15 04:57:28;;;;;;;7.40;2.25;;;4.00;99.90;;;;;;5027617;28;20454;-76
2021/04/15 05:00:11;;;;;;;7.40;2.13;;;4.10;99.90;;;;;;5018979;28;20022;-73
2021/04/15 05:02:37;;;;;;;6.75;2.20;;;4.10;99.90;;;;;;5027869;28;20026;-74
2021/04/15 05:05:19;;;;;;;6.63;2.22;;;4.20;99.90;;;;;;5026265;28;20017;-73
2021/04/15 05:07:47;;;;;;;4.45;2.35;;;4.20;99.90;;;;;;5025901;28;20084;-74
2021/04/15 05:10:20;;;;;;;3.92;1.90;;;4.20;99.90;;;;;;5030738;28;20037;-73
2021/04/15 05:12:49;;;;;;;4.15;2.08;;;4.30;99.90;;;;;;5030617;28;20037;-73
2021/04/15 05:15:18;;;;;;;4.07;2.10;;;4.30;99.90;;;;;;5022984;28;20033;-74
2021/04/15 05:17:48;;;;;;;3.97;2.05;;;4.30;99.90;;;;;;5027742;28;20033;-77
2021/04/15 05:20:18;;;;;;;4.32;2.22;;;4.30;99.90;;;;;;5023169;28;20124;-80
2021/04/15 05:22:52;;;;;;;4.78;2.67;;;4.40;99.90;;;;;;5024431;28;20091;-74
2021/04/15 05:25:33;;;;;;;3.47;2.10;;;4.40;99.60;;;;;;5028089;28;20026;-76
2021/04/15 05:27:59;;;;;;;;;;;4.50;99.30;;;;;;5031563;28;20029;-72
2021/04/15 05:30:48;;;;;;;2.35;1.75;;;4.60;98.80;;;;;;5027446;28;19912;-73
2021/04/15 05:33:21;;;;;;;11.55;2.20;;;4.60;98.70;;;;;;5019341;28;20132;-73
2021/04/15 05:36:06;;;;;;;3.88;2.05;;;4.70;99.00;;;;;;5033912;28;20514;-74
2021/04/15 05:38:41;;;;;;;4.82;2.30;;;4.70;98.40;;;;;;5030521;28;20025;-77
2021/04/15 05:41:12;;;;;;;2.90;2.00;;;4.70;98.40;;;;;;5029943;28;20041;-73
2021/04/15 05:43:48;;;;;;;4.03;1.90;;;4.80;98.10;;;;;;5026366;28;20033;-70
2021/04/15 05:46:25;;;;;;;3.03;1.80;;;4.80;97.60;;;;;;5029253;28;20017;-73
2021/04/15 05:49:01;;;;;;;6.07;2.22;;;4.80;97.50;;;;;;5026344;28;20029;-73
2021/04/15 05:51:31;;;;;;;5.82;1.88;;;4.90;96.90;;;;;;5027096;28;20120;-73
2021/04/15 05:54:05;;;;;;;6.10;1.83;;;5.00;97.40;;;;;;5021089;28;20058;-72
2021/04/15 05:56:54;;;;;;;3.72;1.67;;;5.00;96.90;;;;;;5031484;28;20041;-72
2021/04/15 05:59:46;;;;;;;2.55;1.48;;;5.10;96.80;;;;;;5042031;28;20044;-72
2021/04/15 06:02:50;;;;;;;3.40;1.42;;;5.10;95.80;;;;;;5027820;28;20460;-71
2021/04/15 06:05:33;;;;;;;3.22;1.60;;;5.20;96.10;;;;;;5025418;28;20058;-72
2021/04/15 06:08:03;;;;;;;4.47;1.70;;;5.20;95.90;;;;;;5024815;28;20029;-72
2021/04/15 06:10:39;;;;;;;4.07;1.67;;;5.20;95.80;;;;;;5023570;28;20110;-72
2021/04/15 06:13:41;;;;;;;2.88;1.70;;;5.30;95.60;;;;;;5025401;28;20026;-74
2021/04/15 06:16:11;;;;;;;3.22;1.55;;;5.40;95.70;;;;;;5027457;28;20099;-73
2021/04/15 06:18:36;;;;;;;3.50;1.52;;;5.40;95.20;;;;;;5022616;28;20112;-73
2021/04/15 06:21:13;;;;;;;9.77;2.00;;;5.40;95.20;;;;;;5020555;28;20454;-72
2021/04/15 06:24:02;;;;;;;3.80;1.80;;;5.50;95.00;;;;;;5024292;28;20027;-72
2021/04/15 06:26:50;;;;;;;4.05;1.80;;;5.60;95.50;;;;;;5025369;28;20061;-73
2021/04/15 06:29:50;;;;;;;3.75;1.83;;;5.70;95.40;;;;;;5025549;28;20040;-73
2021/04/15 06:32:21;;;;;;;5.00;1.55;;;5.70;94.80;;;;;;5026053;28;20053;-73
2021/04/15 06:34:47;;;;;;;;;;;5.80;94.80;;;;;;5025773;28;20498;-73
2021/04/15 06:37:21;;;;;;;4.07;1.42;;;5.90;94.80;;;;;;5026707;28;19912;-73
2021/04/15 06:39:50;;;;;;;3.58;1.70;;;5.90;94.20;;;;;;5024306;28;20036;-73
2021/04/15 06:42:51;;;;;;;3.40;1.67;;;6.00;94.00;;;;;;5011756;28;20101;-73
2021/04/15 06:45:37;;;;;;;1.77;1.20;;;6.10;93.60;;;;;;5012779;28;20525;-73
2021/04/15 06:48:26;;;;;;;2.25;1.65;;;6.10;93.50;;;;;;5024580;28;20033;-73
2021/04/15 06:51:28;;;;;;;3.83;1.63;;;6.20;93.60;;;;;;5020518;28;20033;-73
2021/04/15 06:54:09;;;;;;;4.68;1.83;;;6.30;93.90;;;;;;5020411;28;20496;-72
2021/04/15 06:57:06;;;;;;;2.75;1.48;;;6.40;92.80;;;;;;5033058;28;20109;-70
2021/04/15 07:00:17;;;;;;;4.95;1.38;;;6.50;93.30;;;;;;5025871;28;20033;-70
2021/04/15 07:02:54;;;;;;;3.28;1.67;;;6.60;93.00;;;;;;5016057;28;20026;-70
2021/04/15 07:05:30;;;;;;;3.60;1.60;;;6.70;92.40;;;;;;5015459;28;20034;-72
2021/04/15 07:08:04;;;;;;;4.90;1.98;;;6.70;92.70;;;;;;5018100;28;20109;-72
2021/04/15 07:11:01;;;;;;;5.30;1.88;;;6.80;92.30;;;;;;5021220;28;20390;-74
2021/04/15 07:13:49;;;;;;;3.35;1.60;;;6.90;92.00;;;;;;5022252;28;20029;-75
2021/04/15 07:16:44;;;;;;;4.32;1.63;;;7.00;91.50;;;;;;5027727;28;20029;-75
2021/04/15 07:19:29;;;;;;;1.83;1.35;;;7.10;90.70;;;;;;5012419;28;20025;-75
2021/04/15 07:22:14;;;;;;;3.38;1.70;;;7.20;90.50;;;;;;5027294;28;20029;-74
2021/04/15 07:25:15;;;;;;;3.13;1.98;;;7.20;90.50;;;;;;5018214;28;20514;-73
2021/04/15 07:28:04;;;;;;;3.17;1.70;;;7.30;89.30;;;;;;5020245;28;20034;-75
2021/04/15 07:31:16;;;;;;;2.33;1.35;;;7.40;89.30;;;;;;5028018;28;20067;-75
2021/04/15 07:34:16;;;;;;;2.30;1.50;;;7.50;88.70;;;;;;4944530;28;20114;-75
2021/04/15 07:37:03;;;;;;;2.90;1.40;;;7.60;88.60;;;;;;5042389;28;20028;-74
2021/04/15 07:40:13;;;;;;;6.57;1.50;;;7.70;86.80;;;;;;5027866;28;20112;-75
2021/04/15 07:43:01;;;;;;;1.92;1.20;;;7.80;86.90;;;;;;5010025;28;20033;-74
2021/04/15 07:45:58;;;;;;;4.20;1.52;;;7.90;85.90;;;;;;5010312;28;20026;-75
2021/04/15 07:48:57;;;;;;;1.58;1.33;;;8.00;85.60;;;;;;5018175;28;20022;-75
2021/04/15 07:51:47;;;;;;;2.30;1.20;;;8.10;85.60;;;;;;5021367;28;20156;-75
2021/04/15 07:54:34;;;;;;;3.88;0.98;;;8.20;84.50;;;;;;5024931;28;20120;-74
2021/04/15 07:57:30;;;;;;;1.90;1.23;;;8.20;81.00;;;;;;5023871;28;20033;-74
2021/04/15 08:00:12;;;;;;;2.05;0.90;;;8.30;80.90;;;;;;5017857;28;20108;-75
2021/04/15 08:03:01;;;;;;;1.48;0.95;;;8.40;80.00;;;;;;5038335;28;20099;-75
2021/04/15 08:05:52;;;;;;;1.95;1.30;;;8.50;79.70;;;;;;5018257;28;20021;-75
2021/04/15 08:08:39;;;;;;;1.98;1.15;;;8.50;77.40;;;;;;5026181;28;20039;-75
2021/04/15 08:11:36;;;;;;;1.30;0.93;;;8.50;80.90;;;;;;5026509;28;20041;-74
2021/04/15 08:14:15;;;;;;;1.35;0.93;;;8.60;78.40;;;;;;5009496;28;20037;-75
2021/04/15 08:16:55;;;;;;;3.40;1.05;;;8.70;76.10;;;;;;5014430;28;20084;-74
2021/04/15 08:19:56;;;;;;;1.08;0.70;;;8.70;73.30;;;;;;5012395;28;20211;-75
2021/04/15 08:22:48;;;;;;;2.20;1.00;;;8.70;71.60;;;;;;4980467;28;20144;-75
2021/04/15 08:25:32;;;;;;;1.75;0.90;;;8.70;72.40;;;;;;5017391;28;20396;-75
2021/04/15 08:28:23;;;;;;;1.90;0.88;;;8.80;73.20;;;;;;5020596;28;20472;-74
2021/04/15 08:31:48;;;;;;;1.85;0.98;;;8.90;71.80;;;;;;5017555;28;20550;-74
2021/04/15 08:34:23;;;;;;;2.05;0.90;;;9.00;72.30;;;;;;4979013;28;20040;-74
2021/04/15 08:37:34;;;;;;;1.42;1.00;;;9.00;70.70;;;;;;5021024;28;20040;-73
2021/04/15 08:40:13;;;;;;;2.53;0.90;;;9.00;69.90;;;;;;5027063;28;20207;-73
2021/04/15 08:42:51;;;;;;;3.03;0.98;;;9.10;69.50;;;;;;5021866;28;20049;-73
2021/04/15 08:45:30;;;;;;;1.30;0.90;;;9.20;69.20;;;;;;5020709;28;20303;-72
2021/04/15 08:48:18;;;;;;;1.63;0.77;;;9.30;67.60;;;;;;5017443;28;20506;-73
2021/04/15 08:51:32;;;;;;;0.85;0.65;;;9.30;65.40;;;;;;5023536;28;20038;-72
2021/04/15 08:54:29;;;;;;;6.03;0.80;;;9.40;65.20;;;;;;5008400;28;20510;-72
2021/04/15 08:57:05;;;;;;;0.50;0.50;;;9.50;65.10;;;;;;5019297;28;20811;-73
2021/04/15 08:59:42;;;;;;;7.72;0.57;;;9.70;63.40;;;;;;5024116;28;20025;-72
2021/04/15 09:02:47;;;;;;;0.57;0.40;;;9.80;61.40;;;;;;5022528;28;20482;-73
2021/04/15 09:05:36;;;;;;;0.85;0.70;;;9.90;60.30;;;;;;5018070;28;20034;-73
2021/04/15 09:08:17;;;;;;;0.10;0.10;;;10.00;58.90;;;;;;5021878;28;20034;-72
2021/04/15 09:11:04;;;;;;;0.68;0.60;;;10.10;58.20;;;;;;5024412;28;20028;-72
2021/04/15 09:13:37;;;;;;;0.75;0.50;;;10.10;58.00;;;;;;5018301;28;20034;-72
2021/04/15 09:16:16;;;;;;;0.30;0.30;;;10.20;58.00;;;;;;5025890;28;20063;-73
2021/04/15 09:18:57;;;;;;;1.40;0.70;;;10.40;57.70;;;;;;5021656;28;20021;-72
2021/04/15 09:21:55;;;;;;;2.90;0.82;;;10.40;57.60;;;;;;5011057;28;20121;-73
2021/04/15 09:24:30;;;;;;;1.00;0.60;;;10.50;59.40;;;;;;5020195;28;20026;-74
2021/04/15 09:27:22;;;;;;;1.27;0.50;;;10.50;53.70;;;;;;5040216;28;20049;-73
2021/04/15 09:30:21;;;;;;;0.70;0.55;;;10.60;55.20;;;;;;5014066;28;20030;-73
2021/04/15 09:32:53;;;;;;;0.30;0.30;;;10.60;53.90;;;;;;5004480;28;20042;-74
2021/04/15 09:35:34;;;;;;;0.70;0.50;;;10.60;54.30;;;;;;5023981;28;20464;-73
2021/04/15 09:38:11;;;;;;;0.60;0.35;;;10.80;55.40;;;;;;5029003;28;20037;-73
2021/04/15 09:41:01;;;;;;;0.63;0.45;;;10.80;54.50;;;;;;5029008;28;20515;-74
2021/04/15 09:43:41;;;;;;;0.88;0.60;;;10.90;52.40;;;;;;5022382;28;20022;-73
2021/04/15 09:46:30;;;;;;;0.90;0.47;;;11.00;53.80;;;;;;5023463;28;20101;-74
2021/04/15 09:49:35;;;;;;;0.20;0.20;;;11.10;60.20;;;;;;5018441;28;20447;-73
2021/04/15 09:52:33;;;;;;;0.35;0.30;;;11.10;51.30;;;;;;5033804;28;20021;-74
2021/04/15 09:55:31;;;;;;;1.02;0.50;;;11.10;50.40;;;;;;5025927;28;20048;-73
2021/04/15 09:58:19;;;;;;;0.28;0.28;;;11.10;55.00;;;;;;5024526;28;20083;-74
2021/04/15 10:00:50;;;;;;;1.00;0.30;;;11.20;50.00;;;;;;5011590;28;20054;-73
2021/04/15 10:03:53;;;;;;;1.13;0.50;;;11.30;49.40;;;;;;5026590;28;20041;-75
2021/04/15 10:06:35;;;;;;;0.50;0.40;;;11.30;53.00;;;;;;5021324;28;20037;-74
2021/04/15 10:09:17;;;;;;;0.47;0.40;;;11.40;53.50;;;;;;5020854;28;20025;-73
2021/04/15 10:11:48;;;;;;;0.25;0.25;;;11.50;53.00;;;;;;5013071;28;20411;-73
2021/04/15 10:14:26;;;;;;;;;;;11.40;51.70;;;;;;5018938;28;20061;-73
2021/04/15 10:17:13;;;;;;;0.35;0.35;;;11.40;50.60;;;;;;5016560;28;19913;-73
2021/04/15 10:20:27;;;;;;;0.40;0.32;;;11.40;50.30;;;;;;5022702;28;20050;-74
2021/04/15 10:23:17;;;;;;;0.95;0.43;;;11.20;50.60;;;;;;5009573;28;20496;-74
2021/04/15 10:25:46;;;;;;;1.27;0.52;;;11.20;50.50;;;;;;5024313;28;20044;-74
2021/04/15 10:28:49;;;;;;;0.32;0.32;;;11.20;51.40;;;;;;5020367;28;20080;-74
2021/04/15 10:31:43;;;;;;;0.40;0.35;;;11.20;52.50;;;;;;5021447;28;20037;-75
2021/04/15 10:34:17;;;;;;;0.40;0.40;;;11.10;51.70;;;;;;5025105;28;20036;-75
2021/04/15 10:37:14;;;;;;;0.82;0.40;;;11.00;50.90;;;;;;5034529;28;20517;-75
2021/04/15 10:40:02;;;;;;;1.60;0.80;;;10.90;50.60;;;;;;5022094;28;20512;-76
2021/04/15 10:43:03;;;;;;;0.50;0.40;;;10.90;51.80;;;;;;5027353;28;20032;-75
2021/04/15 10:45:57;;;;;;;0.50;0.50;;;10.90;52.50;;;;;;5018359;28;20097;-75
2021/04/15 10:48:45;;;;;;;0.50;0.50;;;10.90;52.10;;;;;;5019235;28;20042;-75
2021/04/15 10:51:23;;;;;;;0.65;0.43;;;10.90;52.10;;;;;;4998556;28;20095;-75
2021/04/15 10:53:58;;;;;;;0.50;0.50;;;11.00;54.30;;;;;;5021431;28;20054;-75
2021/04/15 10:56:24;;;;;;;0.28;0.28;;;10.90;53.10;;;;;;5019684;28;20112;-75
2021/04/15 10:58:52;;;;;;;1.50;0.40;;;11.00;50.90;;;;;;5026118;28;20143;-75
2021/04/15 11:01:39;;;;;;;1.15;0.60;;;11.10;54.40;;;;;;5014686;28;20028;-75
2021/04/15 11:04:07;;;;;;;0.43;0.40;;;11.20;51.10;;;;;;5025301;28;20050;-75
2021/04/15 11:06:44;;;;;;;0.40;0.40;;;11.30;51.60;;;;;;5021900;28;20121;-76
2021/04/15 11:09:24;;;;;;;1.40;0.40;;;11.30;51.80;;;;;;5021919;28;20021;-75
2021/04/15 11:12:14;;;;;;;2.85;0.57;;;11.40;53.10;;;;;;5025590;28;20025;-75
2021/04/15 11:14:46;;;;;;;0.30;0.30;;;11.40;52.10;;;;;;5023045;28;20041;-75
2021/04/15 11:17:31;;;;;;;0.85;0.55;;;11.50;57.70;;;;;;5022376;28;20053;-74
2021/04/15 11:20:09;;;;;;;0.43;0.40;;;11.50;52.90;;;;;;5010089;28;20025;-74
2021/04/15 11:22:37;;;;;;;0.50;0.50;;;11.50;52.60;;;;;;5025540;28;20151;-74
2021/04/15 11:25:30;;;;;;;0.50;0.50;;;11.50;53.90;;;;;;5016609;28;20438;-74
2021/04/15 11:28:00;;;;;;;2.70;0.60;;;11.60;53.70;;;;;;5025987;28;20484;-74
2021/04/15 11:30:45;;;;;;;1.23;0.50;;;11.70;57.20;;;;;;5024818;28;20029;-74
2021/04/15 11:33:31;;;;;;;1.60;0.75;;;11.60;53.80;;;;;;5018882;28;20052;-74
2021/04/15 11:36:23;;;;;;;1.25;0.75;;;11.60;56.30;;;;;;5032059;28;20025;-74
2021/04/15 11:39:05;;;;;;;0.22;0.22;;;11.50;59.70;;;;;;5028649;28;20033;-74
2021/04/15 11:41:46;;;;;;;3.90;0.50;;;11.40;55.30;;;;;;5025347;28;20032;-74
2021/04/15 11:44:25;;;;;;;4.65;0.60;;;11.30;55.40;;;;;;5027145;28;20030;-74
2021/04/15 11:46:54;;;;;;;0.82;0.60;;;11.40;58.10;;;;;;5022029;28;20034;-74
2021/04/15 11:49:19;;;;;;;0.45;0.45;;;11.40;55.30;;;;;;5023573;28;20758;-74
2021/04/15 11:52:12;;;;;;;0.90;0.52;;;11.40;55.60;;;;;;5017522;28;20034;-74
2021/04/15 11:54:43;;;;;;;0.65;0.50;;;11.50;55.40;;;;;;4990997;28;20038;-74
2021/04/15 11:57:37;;;;;;;0.50;0.50;;;11.70;54.80;;;;;;5002852;28;20119;-74
2021/04/15 12:00:02;;;;;;;0.40;0.40;;;11.70;54.20;;;;;;5001536;28;20029;-75
2021/04/15 12:02:37;;;;;;;0.68;0.50;;;11.70;52.80;;;;;;5004080;28;20017;-74
2021/04/15 12:05:16;;;;;;;0.73;0.47;;;11.70;54.50;;;;;;5007104;28;20018;-74
2021/04/15 12:07:51;;;;;;;0.50;0.40;;;11.70;52.70;;;;;;5004335;28;20521;-74
2021/04/15 12:10:19;;;;;;;0.55;0.50;;;11.70;53.20;;;;;;4995386;28;20049;-73
2021/04/15 12:12:48;;;;;;;0.47;0.47;;;11.60;53.20;;;;;;5000288;28;20034;-75
2021/04/15 12:15:19;;;;;;;2.40;0.70;;;11.70;52.80;;;;;;5004087;28;20212;-74
2021/04/15 12:18:13;;;;;;;1.27;0.60;;;11.90;52.50;;;;;;5000508;28;20026;-74
2021/04/15 12:20:53;;;;;;;1.35;0.70;;;11.90;52.40;;;;;;5001961;28;20289;-74
2021/04/15 12:23:39;;;;;;;2.40;0.70;;;11.90;53.00;;;;;;5003377;28;20049;-74
2021/04/15 12:26:18;;;;;;;3.20;0.80;;;11.80;53.10;;;;;;4997967;28;20026;-76
2021/04/15 12:29:05;;;;;;;0.40;0.40;;;11.70;52.50;;;;;;4997687;28;20033;-75
2021/04/15 12:31:41;;;;;;;0.80;0.60;;;11.60;52.20;;;;;;5004684;28;20456;-76
2021/04/15 12:34:29;;;;;;;0.60;0.60;;;11.70;52.40;;;;;;5009484;28;20080;-74
2021/04/15 12:37:08;;;;;;;0.95;0.60;;;11.70;51.90;;;;;;4994330;28;20026;-75
2021/04/15 12:40:05;;;;;;;0.50;0.50;;;11.70;50.50;;;;;;4992118;28;20632;-74
2021/04/15 12:42:36;;;;;;;2.03;0.77;;;11.70;51.70;;;;;;5004906;28;20029;-74
2021/04/15 12:45:04;;;;;;;1.17;0.60;;;11.70;51.80;;;;;;4994385;28;20483;-76
2021/04/15 12:47:34;;;;;;;0.60;0.60;;;11.90;52.30;;;;;;4991958;28;20113;-76
2021/04/15 12:50:01;;;;;;;4.55;0.95;;;11.90;51.70;;;;;;5002209;28;20035;-77
2021/04/15 12:52:29;;;;;;;0.52;0.43;;;11.90;50.80;;;;;;4998032;28;20092;-80
2021/04/15 12:54:57;;;;;;;0.60;0.60;;;12.00;51.80;;;;;;5024487;28;20037;-77
2021/04/15 12:57:23;;;;;;;0.63;0.60;;;12.00;54.60;;;;;;5025065;28;20025;-79
2021/04/15 12:59:50;;;;;;;0.82;0.70;;;11.90;50.50;;;;;;5022854;28;20030;-78
2021/04/15 13:02:27;;;;;;;1.20;0.50;;;11.80;52.00;;;;;;5023306;28;20043;-76
2021/04/15 13:05:03;;;;;;;0.88;0.70;;;11.80;51.40;;;;;;5010731;28;20022;-78
2021/04/15 13:07:34;;;;;;;0.40;0.40;;;11.80;50.00;;;;;;5026642;28;20514;-78
2021/04/15 13:10:15;;;;;;;0.68;0.60;;;11.90;51.10;;;;;;5019617;28;20127;-78
2021/04/15 13:12:51;;;;;;;0.80;0.80;;;11.90;48.80;;;;;;5028482;28;20038;-78
2021/04/15 13:15:23;;;;;;;2.80;0.60;;;11.90;52.00;;;;;;5026946;28;20508;-77
2021/04/15 13:17:49;;;;;;;;;;;11.90;49.80;;;;;;5027579;28;20542;-78
2021/04/15 13:20:39;;;;;;;0.52;0.50;;;11.90;51.20;;;;;;5029894;28;19991;-76
2021/04/15 13:23:08;;;;;;;0.90;0.52;;;11.90;49.60;;;;;;5031472;28;20028;-78
2021/04/15 13:25:56;;;;;;;1.60;0.50;;;11.70;48.00;;;;;;5022900;28;20021;-76
2021/04/15 13:28:45;;;;;;;0.73;0.40;;;11.60;49.60;;;;;;5030263;28;20392;-78
2021/04/15 13:31:39;;;;;;;0.45;0.45;;;11.60;51.50;;;;;;4986582;28;20045;-78
2021/04/15 13:34:09;;;;;;;0.40;0.40;;;11.40;47.40;;;;;;5029614;28;20030;-76
2021/04/15 13:36:35;;;;;;;1.08;0.55;;;11.40;47.60;;;;;;5030543;28;20030;-76
2021/04/15 13:39:07;;;;;;;0.40;0.40;;;11.20;46.90;;;;;;5035021;28;20079;-76
2021/04/15 13:41:38;;;;;;;;;;;11.20;49.50;;;;;;5032309;28;20013;-76
2021/04/15 13:44:08;;;;;;;0.40;0.40;;;11.10;48.50;;;;;;5023467;28;19909;-76
2021/04/15 13:46:44;;;;;;;3.67;0.50;;;11.00;47.40;;;;;;5037256;28;20029;-76
2021/04/15 13:49:11;;;;;;;1.30;0.60;;;10.90;48.30;;;;;;5026154;28;20351;-76
2021/04/15 13:51:41;;;;;;;1.02;0.50;;;10.90;47.60;;;;;;5025354;28;20029;-76
2021/04/15 13:54:30;;;;;;;0.35;0.35;;;10.90;48.20;;;;;;5037586;28;20090;-76
2021/04/15 13:57:00;;;;;;;3.15;0.40;;;10.90;48.00;;;;;;5028357;28;20108;-76
2021/04/15 13:59:36;;;;;;;0.47;0.40;;;10.90;48.20;;;;;;5029092;28;20112;-76